Canton, MO (63435)

12:58 PM CDT on August 04, 2015 (GMT -0500)
HADS | | Change Station
CLOSE
Current Station
Personal Weather Station
Location: Canton, MO
Elevation: 490 ft
Nearby Weather Stations

Elev 490 ft 40.16 °N, 91.52 °W | Updated 58 minutes ago

Overcast
Overcast
70.0 °F
Feels Like 70.0 °F
N
9.0
Wind Variable Wind from ESE
Gusts 12.0 mph

Today
High -- | Low -- °F
--% Chance of Precip.
Yesterday
High -- | Low -- °F
Precip. -- in
6:06 AM 8:17 PM
Waning Gibbous, 76% visible
Pressure 30.05 in
Visibility 10.0 miles
Clouds Few 5000 ft
Overcast 7000 ft
Dew Point Not available.
Humidity Not available.
Rainfall in
Snow Depth Not available.
UV 3 out of 12
Pollen 6.00 out of 12
Air Quality Not available.
Flu Activity Not available.
METAR KUIN 041754Z AUTO 03006KT 10SM FEW050 OVC070 23/16 A3006 RMK AO2 LTG DSNT E-SW RAB37E49 SLP174 P0000 60000 T02280161 10250 20200 53015

More Conditions Fewer Conditions

Pressure 30.05 in
Visibility 10.0 miles
Clouds Few 5000 ft
Overcast 7000 ft
Dew Point Not available.
Humidity Not available.
Rainfall in
Snow Depth Not available.
UV 3 out of 12
Pollen 6.00 out of 12
Air Quality Not available.
Flu Activity Not available.
METAR KUIN 041754Z AUTO 03006KT 10SM FEW050 OVC070 23/16 A3006 RMK AO2 LTG DSNT E-SW RAB37E49 SLP174 P0000 60000 T02280161 10250 20200 53015

More Conditions Fewer Conditions

10-Day Weather Forecast

×

Almanac

Astronomy

Aug. 04, 2015 Rise Set
Actual Time
Civil Twilight
Nautical Twilight
Astronomical Twilight
Moon
Length of Visible Light
Length of Day
Tomorrow will be .
, % of the Moon is Illuminated

Today's Extremes

State Highs State Lows

Community

WunderPhotos

Upload Photos

1,843,927 photos uploaded!

WunderBlogs® & News

Nearby

Air Quality

  Air Quality AQ Index Pollutant
Not available.

Snow Depth

Station Depth Elevation

Earthquake Activity

City Distance Mag. Time & Date
Minimum magnitude displayed is 2.5.

Coastal Water Temperatures

Place Temperature

Stations

Nearby Weather Stations

Station Location Temp. Windchill Dew Point Humidity Wind Precip. Elev Updated Type